Tweets

Valley Met

METAR
EGOV 042050Z 20023KT CAVOK 14/12 Q1010 BLU
EGOV 041950Z 20024KT 9999 FEW025 SCT060 BKN200 15/12 Q1009 BLU

Gallery

Expand all | Collapse all


Chris’s Daily Photo

Subscribe to:

FourFax Stats

  • Total Stats
    • 314 Posts
    • 158 Comments
    • 48 Comment Posters
    • 28 Links
    • 7 Post Categories
    • 4 Link Categories

Archives